sensor_id;sensor_type;location;lat;lon;timestamp;pressure;altitude;pressure_sealevel;temperature;humidity
28354;BME280;15603;50.878;8.036;2024-03-02T00:00:51;142521.59;;;-3.18;100.00
28354;BME280;15603;50.878;8.036;2024-03-02T00:03:19;142504.75;;;-3.25;100.00
28354;BME280;15603;50.878;8.036;2024-03-02T00:05:50;142513.19;;;-3.22;100.00
28354;BME280;15603;50.878;8.036;2024-03-02T00:08:24;142504.75;;;-3.25;100.00
28354;BME280;15603;50.878;8.036;2024-03-02T00:10:57;142531.22;;;-3.14;100.00
28354;BME280;15603;50.878;8.036;2024-03-02T00:13:25;142489.16;;;-3.32;100.00
28354;BME280;15603;50.878;8.036;2024-03-02T00:15:54;142562.50;;;-3.01;100.00
28354;BME280;15603;50.878;8.036;2024-03-02T00:18:33;142534.84;;;-3.12;100.00
28354;BME280;15603;50.878;8.036;2024-03-02T00:21:01;142531.22;;;-3.14;100.00
28354;BME280;15603;50.878;8.036;2024-03-02T00:23:30;142548.06;;;-3.07;100.00
28354;BME280;15603;50.878;8.036;2024-03-02T00:25:59;142543.28;;;-3.09;100.00
28354;BME280;15603;50.878;8.036;2024-03-02T00:28:29;142543.28;;;-3.09;100.00
28354;BME280;15603;50.878;8.036;2024-03-02T00:31:07;142527.66;;;-3.16;100.00
28354;BME280;15603;50.878;8.036;2024-03-02T00:33:36;142512.00;;;-3.22;100.00
28354;BME280;15603;50.878;8.036;2024-03-02T00:36:04;142424.22;;;-3.60;100.00
28354;BME280;15603;50.878;8.036;2024-03-02T00:38:32;142520.41;;;-3.19;100.00
28354;BME280;15603;50.878;8.036;2024-03-02T00:41:05;142398.97;;;-3.70;100.00
28354;BME280;15603;50.878;8.036;2024-03-02T00:43:45;142498.75;;;-3.28;100.00
28354;BME280;15603;50.878;8.036;2024-03-02T00:46:18;142502.38;;;-3.26;100.00
28354;BME280;15603;50.878;8.036;2024-03-02T00:48:55;142513.19;;;-3.22;100.00
28354;BME280;15603;50.878;8.036;2024-03-02T00:51:24;142512.00;;;-3.22;100.00
28354;BME280;15603;50.878;8.036;2024-03-02T00:53:53;142531.22;;;-3.14;100.00
28354;BME280;15603;50.878;8.036;2024-03-02T00:56:24;142551.69;;;-3.05;100.00
28354;BME280;15603;50.878;8.036;2024-03-02T00:58:52;142552.88;;;-3.05;100.00
28354;BME280;15603;50.878;8.036;2024-03-02T01:01:20;142560.13;;;-3.02;100.00
28354;BME280;15603;50.878;8.036;2024-03-02T01:03:47;142542.06;;;-3.09;100.00
28354;BME280;15603;50.878;8.036;2024-03-02T01:06:15;142527.66;;;-3.16;100.00
28354;BME280;15603;50.878;8.036;2024-03-02T01:08:43;142579.34;;;-2.93;100.00
28354;BME280;15603;50.878;8.036;2024-03-02T01:11:10;142613.03;;;-2.79;100.00
28354;BME280;15603;50.878;8.036;2024-03-02T01:13:37;142479.53;;;-3.36;100.00
28354;BME280;15603;50.878;8.036;2024-03-02T01:16:05;142616.63;;;-2.78;100.00
28354;BME280;15603;50.878;8.036;2024-03-02T01:18:32;142629.88;;;-2.72;100.00
28354;BME280;15603;50.878;8.036;2024-03-02T01:20:59;142610.63;;;-2.80;100.00
28354;BME280;15603;50.878;8.036;2024-03-02T01:23:26;142631.06;;;-2.71;100.00
28354;BME280;15603;50.878;8.036;2024-03-02T01:25:53;142646.72;;;-2.65;100.00
28354;BME280;15603;50.878;8.036;2024-03-02T01:28:21;142649.13;;;-2.64;100.00
28354;BME280;15603;50.878;8.036;2024-03-02T01:30:48;142621.44;;;-2.76;100.00
28354;BME280;15603;50.878;8.036;2024-03-02T01:33:17;142658.78;;;-2.60;100.00
28354;BME280;15603;50.878;8.036;2024-03-02T01:35:45;142662.34;;;-2.58;100.00
28354;BME280;15603;50.878;8.036;2024-03-02T01:38:12;142658.78;;;-2.60;100.00
28354;BME280;15603;50.878;8.036;2024-03-02T01:40:40;142555.31;;;-3.04;100.00
28354;BME280;15603;50.878;8.036;2024-03-02T01:43:07;142608.22;;;-2.81;100.00
28354;BME280;15603;50.878;8.036;2024-03-02T01:45:35;142570.94;;;-2.97;100.00
28354;BME280;15603;50.878;8.036;2024-03-02T01:48:05;142524.03;;;-3.17;100.00
28354;BME280;15603;50.878;8.036;2024-03-02T01:50:34;142646.72;;;-2.65;100.00
28354;BME280;15603;50.878;8.036;2024-03-02T01:53:01;142649.13;;;-2.64;100.00
28354;BME280;15603;50.878;8.036;2024-03-02T01:55:31;142658.78;;;-2.60;100.00
28354;BME280;15603;50.878;8.036;2024-03-02T01:58:00;142670.78;;;-2.54;100.00
28354;BME280;15603;50.878;8.036;2024-03-02T02:00:27;142674.41;;;-2.53;100.00
28354;BME280;15603;50.878;8.036;2024-03-02T02:02:55;142678.03;;;-2.51;100.00
28354;BME280;15603;50.878;8.036;2024-03-02T02:05:22;142673.22;;;-2.53;100.00
28354;BME280;15603;50.878;8.036;2024-03-02T02:07:50;142665.97;;;-2.57;100.00
28354;BME280;15603;50.878;8.036;2024-03-02T02:10:18;142665.97;;;-2.57;100.00
28354;BME280;15603;50.878;8.036;2024-03-02T02:12:45;142663.59;;;-2.58;100.00
28354;BME280;15603;50.878;8.036;2024-03-02T02:15:23;142631.06;;;-2.71;100.00
28354;BME280;15603;50.878;8.036;2024-03-02T02:17:50;142550.50;;;-3.06;100.00
28354;BME280;15603;50.878;8.036;2024-03-02T02:20:17;142552.88;;;-3.05;100.00
28354;BME280;15603;50.878;8.036;2024-03-02T02:22:56;142667.16;;;-2.56;100.00
28354;BME280;15603;50.878;8.036;2024-03-02T02:25:24;142586.59;;;-2.90;100.00
28354;BME280;15603;50.878;8.036;2024-03-02T02:27:51;142658.78;;;-2.60;100.00
28354;BME280;15603;50.878;8.036;2024-03-02T02:30:37;142649.13;;;-2.64;100.00
28354;BME280;15603;50.878;8.036;2024-03-02T02:33:05;142651.53;;;-2.63;100.00
28354;BME280;15603;50.878;8.036;2024-03-02T02:35:33;142661.16;;;-2.59;100.00
28354;BME280;15603;50.878;8.036;2024-03-02T02:38:02;142686.44;;;-2.48;100.00
28354;BME280;15603;50.878;8.036;2024-03-02T02:40:30;142643.13;;;-2.66;100.00
28354;BME280;15603;50.878;8.036;2024-03-02T02:42:58;142629.88;;;-2.72;100.00
28354;BME280;15603;50.878;8.036;2024-03-02T02:45:26;142637.13;;;-2.69;100.00
28354;BME280;15603;50.878;8.036;2024-03-02T02:47:53;142620.25;;;-2.76;100.00
28354;BME280;15603;50.878;8.036;2024-03-02T02:50:20;142593.78;;;-2.87;100.00
28354;BME280;15603;50.878;8.036;2024-03-02T02:52:47;142580.53;;;-2.93;100.00
28354;BME280;15603;50.878;8.036;2024-03-02T02:55:14;142550.50;;;-3.06;100.00
28354;BME280;15603;50.878;8.036;2024-03-02T02:57:43;142548.06;;;-3.07;100.00
28354;BME280;15603;50.878;8.036;2024-03-02T03:00:13;142521.59;;;-3.18;100.00
28354;BME280;15603;50.878;8.036;2024-03-02T03:02:48;142509.63;;;-3.23;100.00
28354;BME280;15603;50.878;8.036;2024-03-02T03:05:17;142503.56;;;-3.26;100.00
28354;BME280;15603;50.878;8.036;2024-03-02T03:07:45;142491.56;;;-3.31;100.00
28354;BME280;15603;50.878;8.036;2024-03-02T03:10:12;142479.53;;;-3.36;100.00
28354;BME280;15603;50.878;8.036;2024-03-02T03:12:41;142484.34;;;-3.34;100.00
28354;BME280;15603;50.878;8.036;2024-03-02T03:15:10;142492.75;;;-3.30;100.00
28354;BME280;15603;50.878;8.036;2024-03-02T03:17:38;142467.50;;;-3.41;100.00
28354;BME280;15603;50.878;8.036;2024-03-02T03:20:06;142449.47;;;-3.49;100.00
28354;BME280;15603;50.878;8.036;2024-03-02T03:22:40;142467.50;;;-3.41;100.00
28354;BME280;15603;50.878;8.036;2024-03-02T03:25:07;142445.84;;;-3.50;100.00
28354;BME280;15603;50.878;8.036;2024-03-02T03:27:37;142439.84;;;-3.53;100.00
28354;BME280;15603;50.878;8.036;2024-03-02T03:30:05;142430.22;;;-3.57;100.00
28354;BME280;15603;50.878;8.036;2024-03-02T03:32:33;142429.03;;;-3.58;100.00
28354;BME280;15603;50.878;8.036;2024-03-02T03:35:00;142423.00;;;-3.60;100.00
28354;BME280;15603;50.878;8.036;2024-03-02T03:37:27;142358.09;;;-3.88;100.00
28354;BME280;15603;50.878;8.036;2024-03-02T03:40:00;142317.25;;;-4.05;100.00
28354;BME280;15603;50.878;8.036;2024-03-02T03:42:28;142406.19;;;-3.67;100.00
28354;BME280;15603;50.878;8.036;2024-03-02T03:44:55;142389.34;;;-3.75;100.00
28354;BME280;15603;50.878;8.036;2024-03-02T03:47:22;142329.28;;;-4.00;100.00
28354;BME280;15603;50.878;8.036;2024-03-02T03:49:49;142383.38;;;-3.77;100.00
28354;BME280;15603;50.878;8.036;2024-03-02T03:52:16;142377.31;;;-3.80;100.00
28354;BME280;15603;50.878;8.036;2024-03-02T03:54:43;142368.91;;;-3.83;100.00
28354;BME280;15603;50.878;8.036;2024-03-02T03:57:11;142348.50;;;-3.92;100.00
28354;BME280;15603;50.878;8.036;2024-03-02T03:59:38;142338.88;;;-3.96;100.00
28354;BME280;15603;50.878;8.036;2024-03-02T04:02:05;142331.66;;;-3.99;100.00
28354;BME280;15603;50.878;8.036;2024-03-02T04:04:32;142325.66;;;-4.02;100.00
28354;BME280;15603;50.878;8.036;2024-03-02T04:07:01;142331.66;;;-3.99;100.00
28354;BME280;15603;50.878;8.036;2024-03-02T04:09:28;142334.06;;;-3.98;100.00
28354;BME280;15603;50.878;8.036;2024-03-02T04:11:55;142300.41;;;-4.12;100.00
28354;BME280;15603;50.878;8.036;2024-03-02T04:14:22;142335.28;;;-3.98;100.00
28354;BME280;15603;50.878;8.036;2024-03-02T04:16:49;142331.66;;;-3.99;100.00
28354;BME280;15603;50.878;8.036;2024-03-02T04:19:16;142341.25;;;-3.95;100.00
28354;BME280;15603;50.878;8.036;2024-03-02T04:21:44;142266.78;;;-4.27;100.00
28354;BME280;15603;50.878;8.036;2024-03-02T04:24:11;142329.28;;;-4.00;100.00
28354;BME280;15603;50.878;8.036;2024-03-02T04:26:38;142329.28;;;-4.00;100.00
28354;BME280;15603;50.878;8.036;2024-03-02T04:29:05;142331.66;;;-3.99;100.00
28354;BME280;15603;50.878;8.036;2024-03-02T04:31:33;142336.47;;;-3.97;100.00
28354;BME280;15603;50.878;8.036;2024-03-02T04:34:00;142329.28;;;-4.00;100.00
28354;BME280;15603;50.878;8.036;2024-03-02T04:36:27;142245.13;;;-4.36;100.00
28354;BME280;15603;50.878;8.036;2024-03-02T04:38:54;142259.56;;;-4.30;100.00
28354;BME280;15603;50.878;8.036;2024-03-02T04:41:21;142317.25;;;-4.05;100.00
28354;BME280;15603;50.878;8.036;2024-03-02T04:43:48;142317.25;;;-4.05;100.00
28354;BME280;15603;50.878;8.036;2024-03-02T04:46:15;142317.25;;;-4.05;100.00
28354;BME280;15603;50.878;8.036;2024-03-02T04:48:42;142299.22;;;-4.13;100.00
28354;BME280;15603;50.878;8.036;2024-03-02T04:51:10;142314.81;;;-4.06;100.00
28354;BME280;15603;50.878;8.036;2024-03-02T04:53:38;142324.41;;;-4.02;100.00
28354;BME280;15603;50.878;8.036;2024-03-02T04:56:05;142299.22;;;-4.13;100.00
28354;BME280;15603;50.878;8.036;2024-03-02T04:59:06;142278.75;;;-4.22;100.00
28354;BME280;15603;50.878;8.036;2024-03-02T05:01:34;142151.44;;;-4.76;100.00
28354;BME280;15603;50.878;8.036;2024-03-02T05:04:01;142194.69;;;-4.58;100.00
28354;BME280;15603;50.878;8.036;2024-03-02T05:06:28;142286.00;;;-4.19;100.00
28354;BME280;15603;50.878;8.036;2024-03-02T05:08:56;142276.38;;;-4.23;100.00
28354;BME280;15603;50.878;8.036;2024-03-02T05:11:24;142305.22;;;-4.10;100.00
28354;BME280;15603;50.878;8.036;2024-03-02T05:14:06;142302.81;;;-4.11;100.00
28354;BME280;15603;50.878;8.036;2024-03-02T05:16:34;142331.66;;;-3.99;100.00
28354;BME280;15603;50.878;8.036;2024-03-02T05:19:02;142212.72;;;-4.50;100.00
28354;BME280;15603;50.878;8.036;2024-03-02T05:21:29;142230.72;;;-4.42;100.00
28354;BME280;15603;50.878;8.036;2024-03-02T05:23:56;142283.56;;;-4.20;100.00
28354;BME280;15603;50.878;8.036;2024-03-02T05:26:23;142276.38;;;-4.23;100.00
28354;BME280;15603;50.878;8.036;2024-03-02T05:28:50;142266.78;;;-4.27;100.00
28354;BME280;15603;50.878;8.036;2024-03-02T05:31:17;142253.56;;;-4.32;100.00
28354;BME280;15603;50.878;8.036;2024-03-02T05:33:45;142266.78;;;-4.27;100.00
28354;BME280;15603;50.878;8.036;2024-03-02T05:36:12;142247.53;;;-4.35;100.00
28354;BME280;15603;50.878;8.036;2024-03-02T05:38:39;142278.75;;;-4.22;100.00
28354;BME280;15603;50.878;8.036;2024-03-02T05:41:06;142295.59;;;-4.15;100.00
28354;BME280;15603;50.878;8.036;2024-03-02T05:43:34;142307.63;;;-4.09;100.00
28354;BME280;15603;50.878;8.036;2024-03-02T05:46:01;142332.84;;;-3.99;100.00
28354;BME280;15603;50.878;8.036;2024-03-02T05:48:28;142355.69;;;-3.89;100.00
28354;BME280;15603;50.878;8.036;2024-03-02T05:50:55;142312.44;;;-4.07;100.00
28354;BME280;15603;50.878;8.036;2024-03-02T05:53:23;142395.34;;;-3.72;100.00
28354;BME280;15603;50.878;8.036;2024-03-02T05:55:50;142413.38;;;-3.64;100.00
28354;BME280;15603;50.878;8.036;2024-03-02T05:58:22;142423.00;;;-3.60;100.00
28354;BME280;15603;50.878;8.036;2024-03-02T06:01:19;142442.28;;;-3.52;100.00
28354;BME280;15603;50.878;8.036;2024-03-02T06:03:46;142415.81;;;-3.63;100.00
28354;BME280;15603;50.878;8.036;2024-03-02T06:06:13;142407.41;;;-3.67;100.00
28354;BME280;15603;50.878;8.036;2024-03-02T06:08:40;142435.03;;;-3.55;100.00
28354;BME280;15603;50.878;8.036;2024-03-02T06:11:07;142420.63;;;-3.61;100.00
28354;BME280;15603;50.878;8.036;2024-03-02T06:13:34;142389.34;;;-3.75;100.00
28354;BME280;15603;50.878;8.036;2024-03-02T06:16:01;142370.13;;;-3.83;100.00
28354;BME280;15603;50.878;8.036;2024-03-02T06:18:29;142341.25;;;-3.95;100.00
28354;BME280;15603;50.878;8.036;2024-03-02T06:20:56;142322.03;;;-4.03;100.00
28354;BME280;15603;50.878;8.036;2024-03-02T06:23:23;142329.28;;;-4.00;100.00
28354;BME280;15603;50.878;8.036;2024-03-02T06:25:50;142329.28;;;-4.00;100.00
28354;BME280;15603;50.878;8.036;2024-03-02T06:28:17;142336.47;;;-3.97;100.00
28354;BME280;15603;50.878;8.036;2024-03-02T06:30:44;142377.31;;;-3.80;100.00
28354;BME280;15603;50.878;8.036;2024-03-02T06:33:12;142317.25;;;-4.05;100.00
28354;BME280;15603;50.878;8.036;2024-03-02T06:35:39;142368.91;;;-3.83;100.00
28354;BME280;15603;50.878;8.036;2024-03-02T06:38:06;142358.09;;;-3.88;100.00
28354;BME280;15603;50.878;8.036;2024-03-02T06:40:33;142366.53;;;-3.84;100.00
28354;BME280;15603;50.878;8.036;2024-03-02T06:43:01;142373.72;;;-3.81;100.00
28354;BME280;15603;50.878;8.036;2024-03-02T06:45:28;142362.91;;;-3.86;100.00
28354;BME280;15603;50.878;8.036;2024-03-02T06:47:57;142350.88;;;-3.91;100.00
28354;BME280;15603;50.878;8.036;2024-03-02T06:50:25;142411.00;;;-3.65;100.00
28354;BME280;15603;50.878;8.036;2024-03-02T06:52:52;142423.00;;;-3.60;100.00
28354;BME280;15603;50.878;8.036;2024-03-02T06:55:19;142421.81;;;-3.61;100.00
28354;BME280;15603;50.878;8.036;2024-03-02T06:57:46;142449.47;;;-3.49;100.00
28354;BME280;15603;50.878;8.036;2024-03-02T07:00:14;142459.06;;;-3.45;100.00
28354;BME280;15603;50.878;8.036;2024-03-02T07:02:41;142478.34;;;-3.37;100.00
28354;BME280;15603;50.878;8.036;2024-03-02T07:05:08;142504.75;;;-3.25;100.00
28354;BME280;15603;50.878;8.036;2024-03-02T07:07:36;142524.03;;;-3.17;100.00
28354;BME280;15603;50.878;8.036;2024-03-02T07:10:04;142538.47;;;-3.11;100.00
28354;BME280;15603;50.878;8.036;2024-03-02T07:12:32;142560.13;;;-3.02;100.00
28354;BME280;15603;50.878;8.036;2024-03-02T07:14:59;142584.16;;;-2.91;100.00
28354;BME280;15603;50.878;8.036;2024-03-02T07:17:32;142601.00;;;-2.84;100.00
28354;BME280;15603;50.878;8.036;2024-03-02T07:19:59;142621.44;;;-2.76;100.00
28354;BME280;15603;50.878;8.036;2024-03-02T07:22:26;142599.81;;;-2.85;100.00
28354;BME280;15603;50.878;8.036;2024-03-02T07:24:53;142574.53;;;-2.96;100.00
28354;BME280;15603;50.878;8.036;2024-03-02T07:27:21;142609.44;;;-2.81;100.00
28354;BME280;15603;50.878;8.036;2024-03-02T07:29:48;142604.63;;;-2.83;100.00
28354;BME280;15603;50.878;8.036;2024-03-02T07:32:15;142614.25;;;-2.79;100.00
28354;BME280;15603;50.878;8.036;2024-03-02T07:34:42;142620.25;;;-2.76;100.00
28354;BME280;15603;50.878;8.036;2024-03-02T07:37:09;142650.34;;;-2.63;100.00
28354;BME280;15603;50.878;8.036;2024-03-02T07:39:37;142678.03;;;-2.51;100.00
28354;BME280;15603;50.878;8.036;2024-03-02T07:42:04;142700.88;;;-2.42;100.00
28354;BME280;15603;50.878;8.036;2024-03-02T07:44:33;142709.31;;;-2.38;100.00
28354;BME280;15603;50.878;8.036;2024-03-02T07:47:00;142714.13;;;-2.36;100.00
28354;BME280;15603;50.878;8.036;2024-03-02T07:49:27;142670.78;;;-2.54;100.00
28354;BME280;15603;50.878;8.036;2024-03-02T07:51:55;142582.97;;;-2.92;100.00
28354;BME280;15603;50.878;8.036;2024-03-02T07:54:22;142735.78;;;-2.27;100.00
28354;BME280;15603;50.878;8.036;2024-03-02T07:56:49;142805.59;;;-1.97;100.00
28354;BME280;15603;50.878;8.036;2024-03-02T07:59:17;142860.97;;;-1.73;100.00
28354;BME280;15603;50.878;8.036;2024-03-02T08:01:44;142886.28;;;-1.63;100.00
28354;BME280;15603;50.878;8.036;2024-03-02T08:04:11;142932.03;;;-1.43;100.00
28354;BME280;15603;50.878;8.036;2024-03-02T08:06:38;142942.91;;;-1.39;100.00
28354;BME280;15603;50.878;8.036;2024-03-02T08:09:06;142950.09;;;-1.35;100.00
28354;BME280;15603;50.878;8.036;2024-03-02T08:11:36;142858.59;;;-1.74;100.00
28354;BME280;15603;50.878;8.036;2024-03-02T08:14:06;142928.41;;;-1.45;100.00
28354;BME280;15603;50.878;8.036;2024-03-02T08:16:33;142808.03;;;-1.96;100.00
28354;BME280;15603;50.878;8.036;2024-03-02T08:19:01;142856.16;;;-1.75;100.00
28354;BME280;15603;50.878;8.036;2024-03-02T08:21:28;142822.47;;;-1.90;100.00
28354;BME280;15603;50.878;8.036;2024-03-02T08:23:58;142873.03;;;-1.68;100.00
28354;BME280;15603;50.878;8.036;2024-03-02T08:26:28;142928.41;;;-1.45;100.00
28354;BME280;15603;50.878;8.036;2024-03-02T08:28:59;143048.88;;;-0.93;100.00
28354;BME280;15603;50.878;8.036;2024-03-02T08:31:26;143058.53;;;-0.89;98.57
28354;BME280;15603;50.878;8.036;2024-03-02T08:33:53;143104.31;;;-0.70;98.69
28354;BME280;15603;50.878;8.036;2024-03-02T08:36:21;143153.72;;;-0.49;96.72
28354;BME280;15603;50.878;8.036;2024-03-02T08:38:49;143189.88;;;-0.33;95.97
28354;BME280;15603;50.878;8.036;2024-03-02T08:41:17;143320.13;;;0.22;94.05
28354;BME280;15603;50.878;8.036;2024-03-02T08:43:44;143397.31;;;0.55;91.32
28354;BME280;15603;50.878;8.036;2024-03-02T08:46:11;143425.06;;;0.67;90.61
28354;BME280;15603;50.878;8.036;2024-03-02T08:48:39;143454.03;;;0.79;88.91
28354;BME280;15603;50.878;8.036;2024-03-02T08:51:06;143415.41;;;0.63;87.85
28354;BME280;15603;50.878;8.036;2024-03-02T08:53:34;143386.47;;;0.50;87.78
28354;BME280;15603;50.878;8.036;2024-03-02T08:56:02;143496.25;;;0.97;87.46
28354;BME280;15603;50.878;8.036;2024-03-02T08:58:29;143528.84;;;1.11;88.17
28354;BME280;15603;50.878;8.036;2024-03-02T09:00:56;143538.50;;;1.15;87.52
28354;BME280;15603;50.878;8.036;2024-03-02T09:03:23;143525.22;;;1.09;88.40
28354;BME280;15603;50.878;8.036;2024-03-02T09:05:50;143550.56;;;1.20;87.33
28354;BME280;15603;50.878;8.036;2024-03-02T09:08:17;143569.88;;;1.28;85.45
28354;BME280;15603;50.878;8.036;2024-03-02T09:10:44;143595.25;;;1.39;84.67
28354;BME280;15603;50.878;8.036;2024-03-02T09:13:12;143600.06;;;1.41;82.55
28354;BME280;15603;50.878;8.036;2024-03-02T09:15:39;143635.09;;;1.56;82.66
28354;BME280;15603;50.878;8.036;2024-03-02T09:18:07;143726.84;;;1.95;81.40
28354;BME280;15603;50.878;8.036;2024-03-02T09:20:34;143676.13;;;1.73;79.91
28354;BME280;15603;50.878;8.036;2024-03-02T09:23:01;143792.06;;;2.23;78.68
28354;BME280;15603;50.878;8.036;2024-03-02T09:25:29;143852.47;;;2.48;77.04
28354;BME280;15603;50.878;8.036;2024-03-02T09:27:56;143854.88;;;2.49;76.63
28354;BME280;15603;50.878;8.036;2024-03-02T09:30:23;143876.63;;;2.59;76.59
28354;BME280;15603;50.878;8.036;2024-03-02T09:32:50;143862.16;;;2.52;75.63
28354;BME280;15603;50.878;8.036;2024-03-02T09:35:17;143808.97;;;2.30;75.96
28354;BME280;15603;50.878;8.036;2024-03-02T09:37:45;143724.41;;;1.94;75.91
28354;BME280;15603;50.878;8.036;2024-03-02T09:40:13;143824.66;;;2.36;77.11
28354;BME280;15603;50.878;8.036;2024-03-02T09:42:40;143831.94;;;2.40;77.31
28354;BME280;15603;50.878;8.036;2024-03-02T09:45:09;143841.59;;;2.44;77.35
28354;BME280;15603;50.878;8.036;2024-03-02T09:47:37;143804.16;;;2.28;76.30
28354;BME280;15603;50.878;8.036;2024-03-02T09:50:04;143830.72;;;2.39;76.61
28354;BME280;15603;50.878;8.036;2024-03-02T09:52:32;143845.22;;;2.45;75.24
28354;BME280;15603;50.878;8.036;2024-03-02T09:54:59;143920.13;;;2.77;73.81
28354;BME280;15603;50.878;8.036;2024-03-02T09:57:27;143929.81;;;2.81;74.43
28354;BME280;15603;50.878;8.036;2024-03-02T09:59:54;143922.56;;;2.78;75.42
28354;BME280;15603;50.878;8.036;2024-03-02T10:02:21;143858.50;;;2.51;74.54
28354;BME280;15603;50.878;8.036;2024-03-02T10:04:49;143906.84;;;2.71;74.57
28354;BME280;15603;50.878;8.036;2024-03-02T10:07:17;143897.16;;;2.67;74.57
28354;BME280;15603;50.878;8.036;2024-03-02T10:09:47;143862.16;;;2.52;75.62
28354;BME280;15603;50.878;8.036;2024-03-02T10:12:16;143911.69;;;2.73;74.49
28354;BME280;15603;50.878;8.036;2024-03-02T10:14:45;143941.88;;;2.86;74.88
28354;BME280;15603;50.878;8.036;2024-03-02T10:17:13;143970.91;;;2.99;73.35
28354;BME280;15603;50.878;8.036;2024-03-02T10:19:40;143981.78;;;3.03;73.93
28354;BME280;15603;50.878;8.036;2024-03-02T10:22:09;143963.63;;;2.95;72.40
28354;BME280;15603;50.878;8.036;2024-03-02T10:24:42;143951.53;;;2.90;71.30
28354;BME280;15603;50.878;8.036;2024-03-02T10:27:16;143979.38;;;3.02;71.44
28354;BME280;15603;50.878;8.036;2024-03-02T10:29:47;143908.06;;;2.72;70.87
28354;BME280;15603;50.878;8.036;2024-03-02T10:32:16;143995.06;;;3.09;71.06
28354;BME280;15603;50.878;8.036;2024-03-02T10:34:46;143973.31;;;3.00;71.17
28354;BME280;15603;50.878;8.036;2024-03-02T10:37:15;143998.69;;;3.10;71.44
28354;BME280;15603;50.878;8.036;2024-03-02T10:39:46;144031.34;;;3.24;70.94
28354;BME280;15603;50.878;8.036;2024-03-02T10:42:14;144073.63;;;3.42;69.98
28354;BME280;15603;50.878;8.036;2024-03-02T10:44:42;144070.03;;;3.41;70.46
28354;BME280;15603;50.878;8.036;2024-03-02T10:47:12;144091.78;;;3.50;69.52
28354;BME280;15603;50.878;8.036;2024-03-02T10:49:42;144082.09;;;3.46;69.07
28354;BME280;15603;50.878;8.036;2024-03-02T10:52:10;144089.38;;;3.49;68.69
28354;BME280;15603;50.878;8.036;2024-03-02T10:54:37;144086.94;;;3.48;67.02
28354;BME280;15603;50.878;8.036;2024-03-02T10:57:07;144050.66;;;3.32;67.76
28354;BME280;15603;50.878;8.036;2024-03-02T10:59:46;144025.31;;;3.22;68.39
28354;BME280;15603;50.878;8.036;2024-03-02T11:02:21;144062.78;;;3.38;67.87
28354;BME280;15603;50.878;8.036;2024-03-02T11:04:49;144086.94;;;3.48;67.78
28354;BME280;15603;50.878;8.036;2024-03-02T11:07:18;144120.81;;;3.62;66.98
28354;BME280;15603;50.878;8.036;2024-03-02T11:09:56;144188.53;;;3.91;66.67
28354;BME280;15603;50.878;8.036;2024-03-02T11:12:48;144145.00;;;3.72;65.89
28354;BME280;15603;50.878;8.036;2024-03-02T11:15:20;144174.00;;;3.85;66.14
28354;BME280;15603;50.878;8.036;2024-03-02T11:17:52;144126.84;;;3.65;66.41
28354;BME280;15603;50.878;8.036;2024-03-02T11:20:19;144016.84;;;3.18;66.74
28354;BME280;15603;50.878;8.036;2024-03-02T11:22:48;144084.53;;;3.47;66.85
28354;BME280;15603;50.878;8.036;2024-03-02T11:25:26;144193.38;;;3.93;66.15
28354;BME280;15603;50.878;8.036;2024-03-02T11:33:06;144374.88;;;4.70;63.01
28354;BME280;15603;50.878;8.036;2024-03-02T11:35:43;144307.09;;;4.41;63.10
28354;BME280;15603;50.878;8.036;2024-03-02T11:38:12;144389.38;;;4.76;63.13
28354;BME280;15603;50.878;8.036;2024-03-02T11:40:40;144294.97;;;4.36;63.26
28354;BME280;15603;50.878;8.036;2024-03-02T11:43:08;144302.25;;;4.39;63.42
28354;BME280;15603;50.878;8.036;2024-03-02T11:45:37;144393.03;;;4.78;63.31
28354;BME280;15603;50.878;8.036;2024-03-02T11:48:11;144368.78;;;4.67;61.30
28354;BME280;15603;50.878;8.036;2024-03-02T11:50:47;144458.38;;;5.05;61.22
28354;BME280;15603;50.878;8.036;2024-03-02T11:53:16;144391.78;;;4.77;60.93
28354;BME280;15603;50.878;8.036;2024-03-02T11:55:45;144373.63;;;4.69;61.51
28354;BME280;15603;50.878;8.036;2024-03-02T11:58:16;144445.06;;;5.00;61.33
28354;BME280;15603;50.878;8.036;2024-03-02T12:00:44;144505.59;;;5.25;60.13
28354;BME280;15603;50.878;8.036;2024-03-02T12:03:13;144493.50;;;5.20;59.47
28354;BME280;15603;50.878;8.036;2024-03-02T12:05:40;144411.19;;;4.85;62.32
28354;BME280;15603;50.878;8.036;2024-03-02T12:08:09;144367.59;;;4.67;61.62
28354;BME280;15603;50.878;8.036;2024-03-02T12:10:36;144537.06;;;5.39;60.65
28354;BME280;15603;50.878;8.036;2024-03-02T12:13:05;144566.13;;;5.51;59.24
28354;BME280;15603;50.878;8.036;2024-03-02T12:15:39;144566.13;;;5.51;58.03
28354;BME280;15603;50.878;8.036;2024-03-02T12:18:07;144570.97;;;5.53;58.88
28354;BME280;15603;50.878;8.036;2024-03-02T12:20:34;144594.00;;;5.63;57.97
28354;BME280;15603;50.878;8.036;2024-03-02T12:23:04;144570.97;;;5.53;58.25
28354;BME280;15603;50.878;8.036;2024-03-02T12:25:32;144558.84;;;5.48;58.47
28354;BME280;15603;50.878;8.036;2024-03-02T12:28:01;144638.81;;;5.82;57.69
28354;BME280;15603;50.878;8.036;2024-03-02T12:30:32;144471.69;;;5.11;57.92
28354;BME280;15603;50.878;8.036;2024-03-02T12:33:02;144510.44;;;5.27;57.69
28354;BME280;15603;50.878;8.036;2024-03-02T12:35:29;144604.88;;;5.67;57.10
28354;BME280;15603;50.878;8.036;2024-03-02T12:37:57;144573.38;;;5.54;56.92
28354;BME280;15603;50.878;8.036;2024-03-02T12:40:25;144598.84;;;5.65;56.66
28354;BME280;15603;50.878;8.036;2024-03-02T12:42:52;144701.84;;;6.08;56.27
28354;BME280;15603;50.878;8.036;2024-03-02T12:45:20;144636.38;;;5.81;56.51
28354;BME280;15603;50.878;8.036;2024-03-02T12:47:51;144697.00;;;6.06;55.67
28354;BME280;15603;50.878;8.036;2024-03-02T12:50:20;144573.38;;;5.54;56.31
28354;BME280;15603;50.878;8.036;2024-03-02T12:52:51;144488.66;;;5.18;57.70
28354;BME280;15603;50.878;8.036;2024-03-02T12:55:20;144557.66;;;5.47;57.49
28354;BME280;15603;50.878;8.036;2024-03-02T12:57:49;144621.84;;;5.75;56.89
28354;BME280;15603;50.878;8.036;2024-03-02T13:00:19;144704.25;;;6.09;55.33